ENRA

Mo i Rana , Røssvoll Airport

Mo i Rana, Norway
METAR ENRA 211450Z 00000KT CAVOK M22/M24 Q1014
Observed Flight Rules
Jan-21 @ 14:50 UTC (an hour ago) Visual Flight Rules
Visibility Clouds
10,000+ meters
  • Clear skies
Temperatures Readings
Current -22°C / -8°F
Dewpoint -24°C / -11°F
Humidity 84%
Altimeter 29.94" Hg
Pressure 1013.92 hPa
Elevation 70
METAR ENRA 211450Z 00000KT CAVOK M22/M24 Q1014
Observed Flight Rules
Jan-21 @ 14:50 UTC
(an hour ago)
VFR
Clouds
  • Clear skies
Temperature Dewpoint
-22°C / -8°F -24°C / -11°F
Humidity Altimeter Pressure
84% 29.94" Hg 1013.92 hPa